sensor_id;sensor_type;location;lat;lon;timestamp;P1;durP1;ratioP1;P2;durP2;ratioP2
74636;SDS011;63141;54.616;39.754;2022-09-09T00:00:13;0.85;;;0.50;;
74636;SDS011;63141;54.616;39.754;2022-09-09T00:07:03;0.63;;;0.63;;
74636;SDS011;63141;54.616;39.754;2022-09-09T00:13:34;1.25;;;0.70;;
74636;SDS011;63141;54.616;39.754;2022-09-09T00:16:43;0.85;;;0.60;;
74636;SDS011;63141;54.616;39.754;2022-09-09T00:19:59;1.15;;;0.70;;
74636;SDS011;63141;54.616;39.754;2022-09-09T00:23:12;2.15;;;0.90;;
74636;SDS011;63141;54.616;39.754;2022-09-09T00:29:43;0.57;;;0.50;;
74636;SDS011;63141;54.616;39.754;2022-09-09T00:32:46;0.82;;;0.60;;
74636;SDS011;63141;54.616;39.754;2022-09-09T00:35:58;1.08;;;0.60;;
74636;SDS011;63141;54.616;39.754;2022-09-09T00:39:01;2.97;;;0.77;;
74636;SDS011;63141;54.616;39.754;2022-09-09T00:58:47;1.15;;;0.90;;
74636;SDS011;63141;54.616;39.754;2022-09-09T01:02:00;1.52;;;0.73;;
74636;SDS011;63141;54.616;39.754;2022-09-09T01:05:12;0.73;;;0.70;;
74636;SDS011;63141;54.616;39.754;2022-09-09T01:08:43;2.03;;;0.80;;
74636;SDS011;63141;54.616;39.754;2022-09-09T01:18:20;1.33;;;0.70;;
74636;SDS011;63141;54.616;39.754;2022-09-09T01:21:32;1.48;;;0.80;;
74636;SDS011;63141;54.616;39.754;2022-09-09T01:28:30;2.60;;;0.75;;
74636;SDS011;63141;54.616;39.754;2022-09-09T01:38:32;2.03;;;0.90;;
74636;SDS011;63141;54.616;39.754;2022-09-09T01:41:36;8.13;;;0.80;;
74636;SDS011;63141;54.616;39.754;2022-09-09T01:44:40;1.38;;;0.70;;
74636;SDS011;63141;54.616;39.754;2022-09-09T01:47:42;4.45;;;0.90;;
74636;SDS011;63141;54.616;39.754;2022-09-09T01:50:53;2.60;;;0.88;;
74636;SDS011;63141;54.616;39.754;2022-09-09T01:53:54;0.90;;;0.50;;
74636;SDS011;63141;54.616;39.754;2022-09-09T02:00:08;3.22;;;0.82;;
74636;SDS011;63141;54.616;39.754;2022-09-09T02:03:29;2.92;;;0.90;;
74636;SDS011;63141;54.616;39.754;2022-09-09T02:06:44;1.88;;;0.60;;
74636;SDS011;63141;54.616;39.754;2022-09-09T02:10:03;1.30;;;0.63;;
74636;SDS011;63141;54.616;39.754;2022-09-09T02:13:38;0.98;;;0.63;;
74636;SDS011;63141;54.616;39.754;2022-09-09T02:16:47;3.27;;;0.70;;
74636;SDS011;63141;54.616;39.754;2022-09-09T02:20:05;2.05;;;0.70;;
74636;SDS011;63141;54.616;39.754;2022-09-09T02:23:35;1.35;;;0.80;;
74636;SDS011;63141;54.616;39.754;2022-09-09T02:26:42;0.80;;;0.70;;
74636;SDS011;63141;54.616;39.754;2022-09-09T02:29:51;2.42;;;0.70;;
74636;SDS011;63141;54.616;39.754;2022-09-09T02:33:04;1.10;;;0.80;;
74636;SDS011;63141;54.616;39.754;2022-09-09T02:36:26;1.00;;;0.85;;
74636;SDS011;63141;54.616;39.754;2022-09-09T02:39:32;2.20;;;0.80;;
74636;SDS011;63141;54.616;39.754;2022-09-09T02:42:40;1.23;;;0.80;;
74636;SDS011;63141;54.616;39.754;2022-09-09T02:45:51;1.33;;;0.77;;
74636;SDS011;63141;54.616;39.754;2022-09-09T02:56:04;0.75;;;0.60;;
74636;SDS011;63141;54.616;39.754;2022-09-09T02:59:13;1.50;;;0.85;;
74636;SDS011;63141;54.616;39.754;2022-09-09T03:02:15;1.67;;;0.95;;
74636;SDS011;63141;54.616;39.754;2022-09-09T03:05:26;0.60;;;0.50;;
74636;SDS011;63141;54.616;39.754;2022-09-09T03:08:29;0.70;;;0.70;;
74636;SDS011;63141;54.616;39.754;2022-09-09T03:11:32;0.80;;;0.70;;
74636;SDS011;63141;54.616;39.754;2022-09-09T03:14:34;1.65;;;0.80;;
74636;SDS011;63141;54.616;39.754;2022-09-09T03:17:36;1.33;;;0.60;;
74636;SDS011;63141;54.616;39.754;2022-09-09T03:20:38;1.00;;;0.70;;
74636;SDS011;63141;54.616;39.754;2022-09-09T03:23:39;1.13;;;0.77;;
74636;SDS011;63141;54.616;39.754;2022-09-09T03:26:41;2.85;;;0.90;;
74636;SDS011;63141;54.616;39.754;2022-09-09T03:29:49;2.15;;;0.65;;
74636;SDS011;63141;54.616;39.754;2022-09-09T03:32:57;0.60;;;0.60;;
74636;SDS011;63141;54.616;39.754;2022-09-09T03:36:04;0.90;;;0.70;;
74636;SDS011;63141;54.616;39.754;2022-09-09T03:39:06;0.95;;;0.65;;
74636;SDS011;63141;54.616;39.754;2022-09-09T03:42:08;0.57;;;0.57;;
74636;SDS011;63141;54.616;39.754;2022-09-09T03:45:11;1.98;;;0.70;;
74636;SDS011;63141;54.616;39.754;2022-09-09T03:48:18;0.60;;;0.60;;
74636;SDS011;63141;54.616;39.754;2022-09-09T03:51:20;0.82;;;0.65;;
74636;SDS011;63141;54.616;39.754;2022-09-09T03:54:23;0.88;;;0.80;;
74636;SDS011;63141;54.616;39.754;2022-09-09T03:57:25;0.70;;;0.52;;
74636;SDS011;63141;54.616;39.754;2022-09-09T04:00:27;0.85;;;0.60;;
74636;SDS011;63141;54.616;39.754;2022-09-09T04:03:34;1.05;;;0.90;;
74636;SDS011;63141;54.616;39.754;2022-09-09T04:06:36;1.63;;;0.77;;
74636;SDS011;63141;54.616;39.754;2022-09-09T04:09:37;2.13;;;0.75;;
74636;SDS011;63141;54.616;39.754;2022-09-09T04:12:38;0.70;;;0.60;;
74636;SDS011;63141;54.616;39.754;2022-09-09T04:15:40;0.73;;;0.60;;
74636;SDS011;63141;54.616;39.754;2022-09-09T04:18:42;1.35;;;0.55;;
74636;SDS011;63141;54.616;39.754;2022-09-09T04:21:44;0.70;;;0.70;;
74636;SDS011;63141;54.616;39.754;2022-09-09T04:24:46;1.20;;;0.70;;
74636;SDS011;63141;54.616;39.754;2022-09-09T04:27:47;0.73;;;0.60;;
74636;SDS011;63141;54.616;39.754;2022-09-09T04:30:56;0.60;;;0.60;;
74636;SDS011;63141;54.616;39.754;2022-09-09T04:34:00;0.77;;;0.70;;
74636;SDS011;63141;54.616;39.754;2022-09-09T04:37:06;0.75;;;0.50;;
74636;SDS011;63141;54.616;39.754;2022-09-09T04:40:08;1.17;;;0.70;;
74636;SDS011;63141;54.616;39.754;2022-09-09T04:43:14;1.80;;;0.70;;
74636;SDS011;63141;54.616;39.754;2022-09-09T04:46:17;0.95;;;0.80;;
74636;SDS011;63141;54.616;39.754;2022-09-09T04:49:19;2.50;;;0.75;;
74636;SDS011;63141;54.616;39.754;2022-09-09T04:52:20;1.08;;;0.90;;
74636;SDS011;63141;54.616;39.754;2022-09-09T04:55:22;1.15;;;0.90;;
74636;SDS011;63141;54.616;39.754;2022-09-09T04:58:23;1.20;;;0.95;;
74636;SDS011;63141;54.616;39.754;2022-09-09T05:01:27;1.42;;;0.85;;
74636;SDS011;63141;54.616;39.754;2022-09-09T05:04:35;1.42;;;1.00;;
74636;SDS011;63141;54.616;39.754;2022-09-09T05:07:40;1.10;;;0.82;;
74636;SDS011;63141;54.616;39.754;2022-09-09T05:10:42;1.27;;;0.90;;
74636;SDS011;63141;54.616;39.754;2022-09-09T05:13:46;1.67;;;1.00;;
74636;SDS011;63141;54.616;39.754;2022-09-09T05:16:48;1.38;;;0.80;;
74636;SDS011;63141;54.616;39.754;2022-09-09T05:19:51;1.45;;;1.08;;
74636;SDS011;63141;54.616;39.754;2022-09-09T05:22:56;2.53;;;0.77;;
74636;SDS011;63141;54.616;39.754;2022-09-09T05:26:01;1.58;;;1.00;;
74636;SDS011;63141;54.616;39.754;2022-09-09T05:29:03;7.00;;;1.10;;
74636;SDS011;63141;54.616;39.754;2022-09-09T05:32:05;1.73;;;1.00;;
74636;SDS011;63141;54.616;39.754;2022-09-09T05:35:09;2.47;;;0.80;;
74636;SDS011;63141;54.616;39.754;2022-09-09T05:38:11;0.98;;;0.88;;
74636;SDS011;63141;54.616;39.754;2022-09-09T05:41:13;1.00;;;0.82;;
74636;SDS011;63141;54.616;39.754;2022-09-09T05:44:16;1.30;;;1.00;;
74636;SDS011;63141;54.616;39.754;2022-09-09T05:47:18;0.80;;;0.73;;
74636;SDS011;63141;54.616;39.754;2022-09-09T05:50:20;1.38;;;0.73;;
74636;SDS011;63141;54.616;39.754;2022-09-09T05:53:21;0.95;;;0.85;;
74636;SDS011;63141;54.616;39.754;2022-09-09T05:56:23;1.77;;;1.00;;
74636;SDS011;63141;54.616;39.754;2022-09-09T05:59:26;2.70;;;0.90;;
74636;SDS011;63141;54.616;39.754;2022-09-09T06:02:33;1.15;;;0.98;;
74636;SDS011;63141;54.616;39.754;2022-09-09T06:05:35;1.88;;;0.90;;
74636;SDS011;63141;54.616;39.754;2022-09-09T06:08:40;2.13;;;0.98;;
74636;SDS011;63141;54.616;39.754;2022-09-09T06:11:44;1.52;;;0.90;;
74636;SDS011;63141;54.616;39.754;2022-09-09T06:14:48;1.65;;;0.90;;
74636;SDS011;63141;54.616;39.754;2022-09-09T06:17:54;1.45;;;0.88;;
74636;SDS011;63141;54.616;39.754;2022-09-09T06:20:57;3.53;;;0.90;;
74636;SDS011;63141;54.616;39.754;2022-09-09T06:24:01;1.30;;;1.10;;
74636;SDS011;63141;54.616;39.754;2022-09-09T06:27:04;1.15;;;0.90;;
74636;SDS011;63141;54.616;39.754;2022-09-09T06:30:09;0.98;;;0.70;;
74636;SDS011;63141;54.616;39.754;2022-09-09T06:33:12;2.80;;;1.00;;
74636;SDS011;63141;54.616;39.754;2022-09-09T06:36:15;1.83;;;0.80;;
74636;SDS011;63141;54.616;39.754;2022-09-09T06:39:20;2.20;;;1.25;;
74636;SDS011;63141;54.616;39.754;2022-09-09T06:42:22;1.33;;;1.00;;
74636;SDS011;63141;54.616;39.754;2022-09-09T06:45:24;1.27;;;0.90;;
74636;SDS011;63141;54.616;39.754;2022-09-09T06:48:30;2.10;;;1.13;;
74636;SDS011;63141;54.616;39.754;2022-09-09T06:51:36;1.65;;;1.20;;
74636;SDS011;63141;54.616;39.754;2022-09-09T06:54:44;1.10;;;1.00;;
74636;SDS011;63141;54.616;39.754;2022-09-09T06:57:47;1.50;;;1.10;;
74636;SDS011;63141;54.616;39.754;2022-09-09T07:01:05;1.40;;;1.05;;
74636;SDS011;63141;54.616;39.754;2022-09-09T07:04:12;2.58;;;1.05;;
74636;SDS011;63141;54.616;39.754;2022-09-09T07:07:16;1.30;;;1.20;;
74636;SDS011;63141;54.616;39.754;2022-09-09T07:10:19;2.17;;;1.42;;
74636;SDS011;63141;54.616;39.754;2022-09-09T07:13:24;2.33;;;1.25;;
74636;SDS011;63141;54.616;39.754;2022-09-09T07:16:27;2.90;;;1.20;;
74636;SDS011;63141;54.616;39.754;2022-09-09T07:19:32;3.45;;;1.13;;
74636;SDS011;63141;54.616;39.754;2022-09-09T07:22:36;1.40;;;0.95;;
74636;SDS011;63141;54.616;39.754;2022-09-09T07:25:42;1.58;;;1.10;;
74636;SDS011;63141;54.616;39.754;2022-09-09T07:28:47;2.15;;;1.00;;
74636;SDS011;63141;54.616;39.754;2022-09-09T07:31:49;1.17;;;1.05;;
74636;SDS011;63141;54.616;39.754;2022-09-09T07:34:57;2.53;;;1.13;;
74636;SDS011;63141;54.616;39.754;2022-09-09T07:38:01;1.20;;;1.00;;
74636;SDS011;63141;54.616;39.754;2022-09-09T07:41:04;1.85;;;1.20;;
74636;SDS011;63141;54.616;39.754;2022-09-09T07:44:09;4.10;;;1.40;;
74636;SDS011;63141;54.616;39.754;2022-09-09T07:47:15;1.88;;;1.30;;
74636;SDS011;63141;54.616;39.754;2022-09-09T07:50:22;1.75;;;1.20;;
74636;SDS011;63141;54.616;39.754;2022-09-09T07:53:25;2.75;;;1.30;;
74636;SDS011;63141;54.616;39.754;2022-09-09T07:56:27;3.50;;;1.13;;
74636;SDS011;63141;54.616;39.754;2022-09-09T07:59:30;2.53;;;1.20;;
74636;SDS011;63141;54.616;39.754;2022-09-09T08:02:35;0.85;;;0.82;;
74636;SDS011;63141;54.616;39.754;2022-09-09T08:05:37;1.17;;;0.93;;
74636;SDS011;63141;54.616;39.754;2022-09-09T08:08:41;1.88;;;0.93;;
74636;SDS011;63141;54.616;39.754;2022-09-09T08:11:43;1.42;;;0.90;;
74636;SDS011;63141;54.616;39.754;2022-09-09T08:14:45;1.67;;;1.05;;
74636;SDS011;63141;54.616;39.754;2022-09-09T08:17:47;2.40;;;1.30;;
74636;SDS011;63141;54.616;39.754;2022-09-09T08:20:49;1.95;;;1.20;;
74636;SDS011;63141;54.616;39.754;2022-09-09T08:23:51;1.88;;;0.80;;
74636;SDS011;63141;54.616;39.754;2022-09-09T08:26:58;1.27;;;1.10;;
74636;SDS011;63141;54.616;39.754;2022-09-09T08:29:59;3.38;;;1.20;;
74636;SDS011;63141;54.616;39.754;2022-09-09T08:33:03;2.78;;;0.70;;
74636;SDS011;63141;54.616;39.754;2022-09-09T08:36:05;1.05;;;0.95;;
74636;SDS011;63141;54.616;39.754;2022-09-09T08:39:08;1.40;;;1.02;;
74636;SDS011;63141;54.616;39.754;2022-09-09T08:42:14;1.80;;;1.10;;
74636;SDS011;63141;54.616;39.754;2022-09-09T08:45:29;1.20;;;0.90;;
74636;SDS011;63141;54.616;39.754;2022-09-09T08:51:45;1.23;;;0.90;;
74636;SDS011;63141;54.616;39.754;2022-09-09T08:54:48;0.85;;;0.80;;
74636;SDS011;63141;54.616;39.754;2022-09-09T08:57:52;1.70;;;0.90;;
74636;SDS011;63141;54.616;39.754;2022-09-09T09:11:04;1.48;;;1.00;;
74636;SDS011;63141;54.616;39.754;2022-09-09T09:14:12;0.98;;;0.85;;
74636;SDS011;63141;54.616;39.754;2022-09-09T09:17:29;2.05;;;0.82;;
74636;SDS011;63141;54.616;39.754;2022-09-09T09:20:53;1.70;;;1.00;;
74636;SDS011;63141;54.616;39.754;2022-09-09T09:24:01;2.03;;;1.02;;
74636;SDS011;63141;54.616;39.754;2022-09-09T09:27:13;1.42;;;0.90;;
74636;SDS011;63141;54.616;39.754;2022-09-09T09:30:23;1.38;;;0.90;;
74636;SDS011;63141;54.616;39.754;2022-09-09T09:36:46;1.23;;;0.85;;
74636;SDS011;63141;54.616;39.754;2022-09-09T09:39:55;1.70;;;0.90;;
74636;SDS011;63141;54.616;39.754;2022-09-09T09:42:57;1.63;;;0.90;;
74636;SDS011;63141;54.616;39.754;2022-09-09T09:46:04;1.15;;;0.80;;
74636;SDS011;63141;54.616;39.754;2022-09-09T09:49:19;0.85;;;0.75;;
74636;SDS011;63141;54.616;39.754;2022-09-09T09:52:22;1.90;;;0.70;;
74636;SDS011;63141;54.616;39.754;2022-09-09T09:55:25;1.23;;;0.80;;
74636;SDS011;63141;54.616;39.754;2022-09-09T09:58:31;0.70;;;0.70;;
74636;SDS011;63141;54.616;39.754;2022-09-09T10:01:36;1.05;;;0.77;;
74636;SDS011;63141;54.616;39.754;2022-09-09T10:04:47;0.88;;;0.70;;
74636;SDS011;63141;54.616;39.754;2022-09-09T10:08:05;0.85;;;0.80;;
74636;SDS011;63141;54.616;39.754;2022-09-09T10:45:13;0.77;;;0.73;;
74636;SDS011;63141;54.616;39.754;2022-09-09T10:48:37;0.85;;;0.60;;
74636;SDS011;63141;54.616;39.754;2022-09-09T10:55:12;0.60;;;0.60;;
74636;SDS011;63141;54.616;39.754;2022-09-09T10:58:31;0.88;;;0.70;;
74636;SDS011;63141;54.616;39.754;2022-09-09T11:08:13;0.65;;;0.60;;
74636;SDS011;63141;54.616;39.754;2022-09-09T11:11:21;0.98;;;0.60;;
74636;SDS011;63141;54.616;39.754;2022-09-09T11:17:56;0.50;;;0.50;;
74636;SDS011;63141;54.616;39.754;2022-09-09T11:21:01;0.75;;;0.63;;
74636;SDS011;63141;54.616;39.754;2022-09-09T11:24:09;0.98;;;0.60;;
74636;SDS011;63141;54.616;39.754;2022-09-09T11:41:14;1.25;;;0.60;;
74636;SDS011;63141;54.616;39.754;2022-09-09T11:44:18;0.57;;;0.52;;
74636;SDS011;63141;54.616;39.754;2022-09-09T11:47:26;0.65;;;0.50;;
74636;SDS011;63141;54.616;39.754;2022-09-09T11:50:35;0.93;;;0.55;;
74636;SDS011;63141;54.616;39.754;2022-09-09T11:56:55;0.75;;;0.63;;
74636;SDS011;63141;54.616;39.754;2022-09-09T11:59:57;0.70;;;0.40;;
74636;SDS011;63141;54.616;39.754;2022-09-09T12:02:59;1.05;;;0.50;;
74636;SDS011;63141;54.616;39.754;2022-09-09T12:06:26;0.93;;;0.50;;
74636;SDS011;63141;54.616;39.754;2022-09-09T12:16:31;0.65;;;0.50;;
74636;SDS011;63141;54.616;39.754;2022-09-09T12:19:35;0.40;;;0.40;;
74636;SDS011;63141;54.616;39.754;2022-09-09T12:32:23;0.63;;;0.45;;
74636;SDS011;63141;54.616;39.754;2022-09-09T12:35:26;0.95;;;0.50;;
74636;SDS011;63141;54.616;39.754;2022-09-09T12:38:39;1.30;;;0.82;;
74636;SDS011;63141;54.616;39.754;2022-09-09T12:41:50;1.00;;;0.60;;
74636;SDS011;63141;54.616;39.754;2022-09-09T12:44:57;1.42;;;0.65;;
74636;SDS011;63141;54.616;39.754;2022-09-09T12:48:02;2.65;;;0.70;;
74636;SDS011;63141;54.616;39.754;2022-09-09T12:51:16;1.25;;;0.75;;
74636;SDS011;63141;54.616;39.754;2022-09-09T12:54:22;1.30;;;0.43;;
74636;SDS011;63141;54.616;39.754;2022-09-09T12:57:24;3.10;;;0.80;;
74636;SDS011;63141;54.616;39.754;2022-09-09T13:00:27;1.23;;;0.70;;
74636;SDS011;63141;54.616;39.754;2022-09-09T13:03:33;0.70;;;0.60;;
74636;SDS011;63141;54.616;39.754;2022-09-09T13:06:44;1.40;;;0.90;;
74636;SDS011;63141;54.616;39.754;2022-09-09T13:09:46;2.17;;;0.73;;
74636;SDS011;63141;54.616;39.754;2022-09-09T13:12:49;2.13;;;0.93;;
74636;SDS011;63141;54.616;39.754;2022-09-09T13:15:52;3.85;;;1.05;;
74636;SDS011;63141;54.616;39.754;2022-09-09T13:18:56;1.52;;;0.90;;
74636;SDS011;63141;54.616;39.754;2022-09-09T13:21:58;3.05;;;1.13;;
74636;SDS011;63141;54.616;39.754;2022-09-09T13:28:20;2.17;;;1.17;;
74636;SDS011;63141;54.616;39.754;2022-09-09T13:31:27;1.40;;;0.95;;
74636;SDS011;63141;54.616;39.754;2022-09-09T13:34:31;2.17;;;1.20;;
74636;SDS011;63141;54.616;39.754;2022-09-09T13:37:36;2.03;;;1.10;;
74636;SDS011;63141;54.616;39.754;2022-09-09T13:40:39;3.40;;;1.05;;
74636;SDS011;63141;54.616;39.754;2022-09-09T13:43:44;2.72;;;1.23;;
74636;SDS011;63141;54.616;39.754;2022-09-09T13:46:48;5.10;;;1.10;;
74636;SDS011;63141;54.616;39.754;2022-09-09T13:50:21;2.70;;;1.08;;
74636;SDS011;63141;54.616;39.754;2022-09-09T13:53:27;2.20;;;1.10;;
74636;SDS011;63141;54.616;39.754;2022-09-09T13:56:29;1.77;;;0.80;;
74636;SDS011;63141;54.616;39.754;2022-09-09T13:59:30;4.82;;;0.75;;
74636;SDS011;63141;54.616;39.754;2022-09-09T14:02:35;1.58;;;0.88;;
74636;SDS011;63141;54.616;39.754;2022-09-09T14:05:36;1.95;;;0.93;;
74636;SDS011;63141;54.616;39.754;2022-09-09T14:08:40;3.28;;;0.90;;
74636;SDS011;63141;54.616;39.754;2022-09-09T14:11:42;1.95;;;0.98;;
74636;SDS011;63141;54.616;39.754;2022-09-09T14:14:44;1.10;;;0.70;;
74636;SDS011;63141;54.616;39.754;2022-09-09T14:17:46;2.42;;;0.77;;
74636;SDS011;63141;54.616;39.754;2022-09-09T14:20:49;1.58;;;0.75;;
74636;SDS011;63141;54.616;39.754;2022-09-09T14:23:51;2.35;;;0.93;;
74636;SDS011;63141;54.616;39.754;2022-09-09T14:26:58;1.13;;;0.80;;
74636;SDS011;63141;54.616;39.754;2022-09-09T14:29:59;1.35;;;0.80;;
74636;SDS011;63141;54.616;39.754;2022-09-09T14:33:01;3.22;;;0.70;;
74636;SDS011;63141;54.616;39.754;2022-09-09T14:36:03;0.80;;;0.70;;
74636;SDS011;63141;54.616;39.754;2022-09-09T14:39:05;1.52;;;0.95;;
74636;SDS011;63141;54.616;39.754;2022-09-09T14:42:06;1.10;;;0.70;;
74636;SDS011;63141;54.616;39.754;2022-09-09T14:45:08;1.50;;;0.60;;
74636;SDS011;63141;54.616;39.754;2022-09-09T14:48:10;3.45;;;0.60;;
74636;SDS011;63141;54.616;39.754;2022-09-09T14:51:12;1.35;;;0.60;;
74636;SDS011;63141;54.616;39.754;2022-09-09T14:57:19;2.55;;;1.17;;
74636;SDS011;63141;54.616;39.754;2022-09-09T15:00:21;2.40;;;0.60;;
74636;SDS011;63141;54.616;39.754;2022-09-09T15:03:28;0.90;;;0.60;;
74636;SDS011;63141;54.616;39.754;2022-09-09T15:06:30;0.82;;;0.60;;
74636;SDS011;63141;54.616;39.754;2022-09-09T15:09:34;0.93;;;0.63;;
74636;SDS011;63141;54.616;39.754;2022-09-09T15:12:35;1.45;;;0.63;;
74636;SDS011;63141;54.616;39.754;2022-09-09T15:15:37;0.93;;;0.60;;
74636;SDS011;63141;54.616;39.754;2022-09-09T15:18:38;1.70;;;0.52;;
74636;SDS011;63141;54.616;39.754;2022-09-09T15:21:43;2.20;;;0.70;;
74636;SDS011;63141;54.616;39.754;2022-09-09T15:24:45;2.40;;;0.70;;
74636;SDS011;63141;54.616;39.754;2022-09-09T15:27:46;2.35;;;0.77;;
74636;SDS011;63141;54.616;39.754;2022-09-09T15:30:48;2.05;;;0.60;;
74636;SDS011;63141;54.616;39.754;2022-09-09T15:33:51;1.08;;;0.70;;
74636;SDS011;63141;54.616;39.754;2022-09-09T15:36:55;0.98;;;0.50;;
74636;SDS011;63141;54.616;39.754;2022-09-09T15:39:56;0.60;;;0.52;;
74636;SDS011;63141;54.616;39.754;2022-09-09T15:42:59;0.98;;;0.50;;
74636;SDS011;63141;54.616;39.754;2022-09-09T15:46:05;0.65;;;0.47;;
74636;SDS011;63141;54.616;39.754;2022-09-09T15:49:26;1.85;;;0.50;;
74636;SDS011;63141;54.616;39.754;2022-09-09T15:52:27;1.10;;;0.60;;
74636;SDS011;63141;54.616;39.754;2022-09-09T15:55:29;0.70;;;0.60;;
74636;SDS011;63141;54.616;39.754;2022-09-09T15:58:30;0.60;;;0.50;;
74636;SDS011;63141;54.616;39.754;2022-09-09T16:01:32;2.40;;;0.40;;
74636;SDS011;63141;54.616;39.754;2022-09-09T16:04:41;1.10;;;0.60;;
74636;SDS011;63141;54.616;39.754;2022-09-09T16:07:42;1.63;;;0.50;;
74636;SDS011;63141;54.616;39.754;2022-09-09T16:10:45;0.50;;;0.38;;
74636;SDS011;63141;54.616;39.754;2022-09-09T16:13:48;1.27;;;0.40;;
74636;SDS011;63141;54.616;39.754;2022-09-09T16:16:51;2.22;;;0.77;;
74636;SDS011;63141;54.616;39.754;2022-09-09T16:19:53;1.15;;;0.40;;
74636;SDS011;63141;54.616;39.754;2022-09-09T16:23:13;1.95;;;0.65;;
74636;SDS011;63141;54.616;39.754;2022-09-09T16:26:15;0.68;;;0.35;;
74636;SDS011;63141;54.616;39.754;2022-09-09T16:29:18;0.77;;;0.50;;
74636;SDS011;63141;54.616;39.754;2022-09-09T16:32:19;1.90;;;0.60;;
74636;SDS011;63141;54.616;39.754;2022-09-09T16:35:21;1.00;;;0.50;;
74636;SDS011;63141;54.616;39.754;2022-09-09T16:38:22;0.45;;;0.45;;
74636;SDS011;63141;54.616;39.754;2022-09-09T16:41:25;0.60;;;0.50;;
74636;SDS011;63141;54.616;39.754;2022-09-09T16:44:30;0.57;;;0.50;;
74636;SDS011;63141;54.616;39.754;2022-09-09T16:47:32;1.02;;;0.57;;
74636;SDS011;63141;54.616;39.754;2022-09-09T16:50:33;0.73;;;0.60;;
74636;SDS011;63141;54.616;39.754;2022-09-09T16:53:35;0.80;;;0.50;;
74636;SDS011;63141;54.616;39.754;2022-09-09T16:56:37;0.70;;;0.40;;
74636;SDS011;63141;54.616;39.754;2022-09-09T16:59:58;0.70;;;0.50;;
74636;SDS011;63141;54.616;39.754;2022-09-09T17:03:05;0.98;;;0.50;;
74636;SDS011;63141;54.616;39.754;2022-09-09T17:06:13;0.65;;;0.47;;
74636;SDS011;63141;54.616;39.754;2022-09-09T17:09:19;1.25;;;0.55;;
74636;SDS011;63141;54.616;39.754;2022-09-09T17:12:21;0.82;;;0.52;;
74636;SDS011;63141;54.616;39.754;2022-09-09T17:15:23;0.63;;;0.40;;
74636;SDS011;63141;54.616;39.754;2022-09-09T17:18:25;1.30;;;0.50;;
74636;SDS011;63141;54.616;39.754;2022-09-09T17:21:29;0.80;;;0.60;;
74636;SDS011;63141;54.616;39.754;2022-09-09T17:24:31;1.15;;;0.50;;
74636;SDS011;63141;54.616;39.754;2022-09-09T17:27:35;1.38;;;0.70;;
74636;SDS011;63141;54.616;39.754;2022-09-09T17:30:36;0.63;;;0.50;;
74636;SDS011;63141;54.616;39.754;2022-09-09T17:33:39;0.73;;;0.40;;
74636;SDS011;63141;54.616;39.754;2022-09-09T17:36:42;1.42;;;0.50;;
74636;SDS011;63141;54.616;39.754;2022-09-09T17:39:44;0.90;;;0.70;;
74636;SDS011;63141;54.616;39.754;2022-09-09T17:42:45;1.13;;;0.60;;
74636;SDS011;63141;54.616;39.754;2022-09-09T17:45:48;0.93;;;0.40;;
74636;SDS011;63141;54.616;39.754;2022-09-09T17:48:51;1.23;;;0.60;;
74636;SDS011;63141;54.616;39.754;2022-09-09T17:51:55;0.45;;;0.30;;
74636;SDS011;63141;54.616;39.754;2022-09-09T17:54:57;2.65;;;0.55;;
74636;SDS011;63141;54.616;39.754;2022-09-09T17:57:59;0.55;;;0.50;;
74636;SDS011;63141;54.616;39.754;2022-09-09T18:01:11;0.82;;;0.50;;
74636;SDS011;63141;54.616;39.754;2022-09-09T18:04:19;1.48;;;0.70;;
74636;SDS011;63141;54.616;39.754;2022-09-09T18:07:21;0.63;;;0.60;;
74636;SDS011;63141;54.616;39.754;2022-09-09T18:10:24;0.73;;;0.55;;
74636;SDS011;63141;54.616;39.754;2022-09-09T18:13:26;0.57;;;0.43;;
74636;SDS011;63141;54.616;39.754;2022-09-09T18:16:29;1.10;;;0.50;;
74636;SDS011;63141;54.616;39.754;2022-09-09T18:19:34;0.88;;;0.63;;
74636;SDS011;63141;54.616;39.754;2022-09-09T18:22:35;1.33;;;0.60;;
74636;SDS011;63141;54.616;39.754;2022-09-09T18:25:39;0.95;;;0.50;;
74636;SDS011;63141;54.616;39.754;2022-09-09T18:28:42;0.73;;;0.50;;
74636;SDS011;63141;54.616;39.754;2022-09-09T18:31:47;1.00;;;0.60;;
74636;SDS011;63141;54.616;39.754;2022-09-09T18:34:49;0.60;;;0.47;;
74636;SDS011;63141;54.616;39.754;2022-09-09T18:37:51;1.17;;;0.50;;
74636;SDS011;63141;54.616;39.754;2022-09-09T18:40:52;1.23;;;0.60;;
74636;SDS011;63141;54.616;39.754;2022-09-09T18:43:57;1.23;;;0.73;;
74636;SDS011;63141;54.616;39.754;2022-09-09T18:46:59;0.70;;;0.52;;
74636;SDS011;63141;54.616;39.754;2022-09-09T18:50:03;0.75;;;0.50;;
74636;SDS011;63141;54.616;39.754;2022-09-09T18:53:04;0.98;;;0.77;;
74636;SDS011;63141;54.616;39.754;2022-09-09T18:56:07;0.80;;;0.63;;
74636;SDS011;63141;54.616;39.754;2022-09-09T18:59:14;1.13;;;0.70;;
74636;SDS011;63141;54.616;39.754;2022-09-09T19:02:21;2.47;;;0.90;;
74636;SDS011;63141;54.616;39.754;2022-09-09T19:05:23;0.70;;;0.57;;
74636;SDS011;63141;54.616;39.754;2022-09-09T19:08:27;1.60;;;0.80;;
74636;SDS011;63141;54.616;39.754;2022-09-09T19:11:28;1.75;;;0.80;;
74636;SDS011;63141;54.616;39.754;2022-09-09T19:14:30;1.00;;;0.90;;
74636;SDS011;63141;54.616;39.754;2022-09-09T19:17:31;1.48;;;0.90;;
74636;SDS011;63141;54.616;39.754;2022-09-09T19:20:33;1.25;;;0.80;;
74636;SDS011;63141;54.616;39.754;2022-09-09T19:23:34;1.55;;;0.85;;
74636;SDS011;63141;54.616;39.754;2022-09-09T19:26:37;1.30;;;0.90;;
74636;SDS011;63141;54.616;39.754;2022-09-09T19:29:40;3.75;;;0.93;;
74636;SDS011;63141;54.616;39.754;2022-09-09T19:32:44;1.35;;;0.80;;
74636;SDS011;63141;54.616;39.754;2022-09-09T19:35:45;1.58;;;0.75;;
74636;SDS011;63141;54.616;39.754;2022-09-09T19:38:57;1.40;;;0.85;;
74636;SDS011;63141;54.616;39.754;2022-09-09T19:42:00;2.08;;;1.17;;
74636;SDS011;63141;54.616;39.754;2022-09-09T19:45:02;1.17;;;1.00;;
74636;SDS011;63141;54.616;39.754;2022-09-09T19:48:03;1.65;;;1.02;;
74636;SDS011;63141;54.616;39.754;2022-09-09T19:51:07;1.70;;;1.00;;
74636;SDS011;63141;54.616;39.754;2022-09-09T19:54:13;1.95;;;1.25;;
74636;SDS011;63141;54.616;39.754;2022-09-09T19:57:14;1.25;;;1.10;;
74636;SDS011;63141;54.616;39.754;2022-09-09T20:00:16;1.20;;;1.08;;
74636;SDS011;63141;54.616;39.754;2022-09-09T20:03:22;1.58;;;1.10;;
74636;SDS011;63141;54.616;39.754;2022-09-09T20:06:25;1.35;;;1.08;;
74636;SDS011;63141;54.616;39.754;2022-09-09T20:09:28;1.63;;;1.38;;
74636;SDS011;63141;54.616;39.754;2022-09-09T20:12:30;1.88;;;1.38;;
74636;SDS011;63141;54.616;39.754;2022-09-09T20:15:31;1.83;;;1.15;;
74636;SDS011;63141;54.616;39.754;2022-09-09T20:18:35;1.90;;;1.35;;
74636;SDS011;63141;54.616;39.754;2022-09-09T20:21:40;1.75;;;1.20;;
74636;SDS011;63141;54.616;39.754;2022-09-09T20:24:49;1.75;;;1.17;;
74636;SDS011;63141;54.616;39.754;2022-09-09T20:27:50;1.77;;;1.30;;
74636;SDS011;63141;54.616;39.754;2022-09-09T20:30:52;1.95;;;1.42;;
74636;SDS011;63141;54.616;39.754;2022-09-09T20:33:55;1.48;;;1.23;;
74636;SDS011;63141;54.616;39.754;2022-09-09T20:36:57;1.98;;;1.48;;
74636;SDS011;63141;54.616;39.754;2022-09-09T20:40:02;2.22;;;1.60;;
74636;SDS011;63141;54.616;39.754;2022-09-09T20:43:04;2.17;;;1.42;;
74636;SDS011;63141;54.616;39.754;2022-09-09T20:46:06;2.38;;;1.50;;
74636;SDS011;63141;54.616;39.754;2022-09-09T20:49:08;1.40;;;1.30;;
74636;SDS011;63141;54.616;39.754;2022-09-09T20:52:11;1.52;;;1.42;;
74636;SDS011;63141;54.616;39.754;2022-09-09T20:55:13;2.08;;;1.58;;